Startpagina
METAR-TAF:

METAR-TAF

Vliegvelden :

Zaqatala, Azerbeidzjan

breedte: 41-33-44N, lengte: 46-40-02E, hoogte: 330 m

Actueel weer

Dit bericht is 35 minuten geleden gemaakt, om 19:00 UTC
Wind 10 kt uit het oosten
Temperatuur 4°C
Vochtigheid 70%
Druk 1031 hPa
Zicht 10 km of meer

METAR: UBBY 181900Z 10010KT 9999 NSC 04/M01 Q1031 R33/////// NOSIG RMK MT OP

Tijdstip: 23:35 (19:35 UTC)

Verwachting

Dit bericht is 2 uur en het 35 minuten geleden gemaakt, om 17:00 UTC
Verwachting geldig van 18 om 18 UTC tot 19 om 03 UTC
Wind 4 kt uit variabele richting
Zicht 10 km of meer
Weinig wolken op 4000 ft
Verspreide wolken op 10000 ft

TAF: UBBY 181700Z 1818/1903 VRB04KT 9999 FEW040 SCT100

Waarnemingen en weersverwachtingen van meer dan 4000 vliegvelden (METAR en TAF).

De beschikbare stations zijn de gele en rode punten op de kaart.

Ga met uw muis naar het station om de naam te zien.

Klik dan om waarnemingen en weersverwachtingen te zien.

kaart wijzigen: klik op de groene knoppen met een zwart kruis om in te zoomen, op de groene knop met een streepje om uit te zoomen of op de groene pijlen voor aangrenzende kaarten.


METAR-TAF: